Cazenovia, New York
Current Conditions -  °F | °C
As of 8:54 AM on Thursday 29 Jan 2015 (Local Time) from KSYR Reporting Station
Overcast Overcast  
Wind Chill: -7°   Ceiling: 26000
Heat Index:   Visibility: 10mi
Dew Point:   Wind: 9mph
Humidity: 84%   Direction: 90°E
Pressure: 30.17"   Gusts: NA
Location:  42.93°N, 75.85°W
Report Text: KSYR 291354Z 09008KT 10SM SCT220 OVC260 M14/M16 A3017 RMK AO2 SLP224 OVC V BKN T11391161 $
Loading
Personal Weather Stations






























Interactive Weather Map New forecast layout! Learn more

10-Day Weather Forecast

Advertisements
Track Severe Weather on mobile